Terminal Aerodrome Forecast
Issued by NWS

Home | Current Version | Previous Version | Text Only | Print | Product List | Glossary On
Versions: 1 2 3 4 5 6 7 8 9 10 11 12
000
FTUS42 KILM 292340
TAFCRE
TAF
KCRE 292340Z 3000/3024 21009KT P6SM SCT250
     FM300400 24004KT P6SM BKN150
     FM301300 24008KT P6SM SCT045
     FM301700 21012G18KT P6SM SCT040 BKN060 PROB30 3018/3024
      VRB15G30KT 3SM TSRA BKN035CB=

USA.gov is the U.S. government's official web portal to all federal, state and local government web resources and services.